createdAt,value
2017-04-13T00:00:10.998Z,0
2017-04-13T00:01:33.736Z,0
2017-04-13T00:02:55.289Z,0
2017-04-13T00:04:16.816Z,0
2017-04-13T00:05:38.980Z,0
2017-04-13T00:07:01.474Z,0
2017-04-13T00:08:23.317Z,0
2017-04-13T00:09:44.830Z,0
2017-04-13T00:11:07.398Z,0
2017-04-13T00:12:29.248Z,0
2017-04-13T00:13:51.390Z,0
2017-04-13T00:15:13.529Z,0
2017-04-13T00:16:35.986Z,0
2017-04-13T00:17:58.878Z,0
2017-04-13T00:19:20.710Z,0
2017-04-13T00:20:41.905Z,0
2017-04-13T00:22:03.745Z,0
2017-04-13T00:23:26.309Z,0
2017-04-13T00:24:48.467Z,0
2017-04-13T00:26:10.308Z,0
2017-04-13T00:27:31.826Z,0
2017-04-13T00:28:53.899Z,0
2017-04-13T00:30:16.033Z,0
2017-04-13T00:31:37.847Z,0
2017-04-13T00:33:00.139Z,0
2017-04-13T00:34:22.368Z,0
2017-04-13T00:38:48.425Z,0
2017-04-13T00:40:10.592Z,0
2017-04-13T00:41:32.048Z,0
2017-04-13T00:42:53.831Z,0
2017-04-13T00:44:16.239Z,0
2017-04-13T00:45:37.948Z,0
2017-04-13T00:47:00.097Z,0
2017-04-13T00:48:22.505Z,0
2017-04-13T00:49:44.894Z,0
2017-04-13T00:51:06.642Z,0
2017-04-13T00:52:28.168Z,0
2017-04-13T00:53:50.059Z,0
2017-04-13T00:55:11.870Z,0
2017-04-13T00:56:33.737Z,0
2017-04-13T00:57:55.249Z,0
2017-04-13T00:59:17.080Z,0
2017-04-13T01:00:39.230Z,0
2017-04-13T01:02:00.984Z,0
2017-04-13T01:03:22.494Z,0
2017-04-13T01:04:43.998Z,0
2017-04-13T01:06:06.002Z,0
2017-04-13T01:07:28.454Z,0
2017-04-13T01:08:50.321Z,0
2017-04-13T01:10:12.598Z,0
2017-04-13T01:11:34.423Z,0
2017-04-13T01:12:56.703Z,0
2017-04-13T01:14:18.849Z,0
2017-04-13T01:15:41.312Z,0
2017-04-13T01:17:03.168Z,0
2017-04-13T01:18:24.945Z,0
2017-04-13T01:19:47.082Z,0
2017-04-13T01:21:09.208Z,0
2017-04-13T01:22:31.338Z,0
2017-04-13T01:23:53.828Z,0
2017-04-13T01:25:15.989Z,0
2017-04-13T01:26:38.238Z,0
2017-04-13T01:28:00.189Z,0
2017-04-13T01:29:22.709Z,0
2017-04-13T01:30:44.848Z,0
2017-04-13T01:32:06.048Z,0
2017-04-13T01:33:27.919Z,0
2017-04-13T01:34:50.779Z,0
2017-04-13T01:36:12.927Z,0
2017-04-13T01:37:34.451Z,0
2017-04-13T01:38:55.975Z,0
2017-04-13T01:40:18.150Z,0
2017-04-13T01:41:39.664Z,0
2017-04-13T01:43:01.849Z,0
2017-04-13T01:44:24.027Z,0
2017-04-13T01:45:46.560Z,0
2017-04-13T01:47:08.399Z,0
2017-04-13T01:48:30.209Z,0
2017-04-13T01:49:52.195Z,0
2017-04-13T01:51:14.281Z,0
2017-04-13T01:52:36.854Z,0
2017-04-13T01:53:59.049Z,0
2017-04-13T01:55:21.226Z,0
2017-04-13T01:56:43.081Z,0
2017-04-13T01:58:04.597Z,0
2017-04-13T01:59:26.831Z,0
2017-04-13T02:00:48.347Z,0
2017-04-13T02:02:10.849Z,0
2017-04-13T02:03:33.388Z,0
2017-04-13T02:04:55.211Z,0
2017-04-13T02:06:17.398Z,0
2017-04-13T02:07:39.217Z,0
2017-04-13T02:09:01.055Z,0
2017-04-13T02:10:22.882Z,0
2017-04-13T02:11:45.381Z,0
2017-04-13T02:13:06.938Z,0
2017-04-13T02:14:28.611Z,0
2017-04-13T02:15:50.751Z,0
2017-04-13T02:17:12.899Z,0
2017-04-13T02:18:34.979Z,0
2017-04-13T02:19:56.811Z,0
2017-04-13T02:21:18.635Z,0
2017-04-13T02:22:40.781Z,0
2017-04-13T02:24:03.348Z,0
2017-04-13T02:25:25.178Z,0
2017-04-13T02:26:47.004Z,0
2017-04-13T02:28:09.197Z,0
2017-04-13T02:29:31.271Z,0
2017-04-13T02:30:52.819Z,0
2017-04-13T02:32:14.974Z,0
2017-04-13T02:33:37.120Z,0
2017-04-13T02:35:00.033Z,0
2017-04-13T02:36:22.172Z,0
2017-04-13T02:37:44.606Z,0
2017-04-13T02:39:06.108Z,0
2017-04-13T02:40:28.721Z,0
2017-04-13T02:41:50.879Z,0
2017-04-13T02:43:12.074Z,0
2017-04-13T02:44:33.883Z,0
2017-04-13T02:45:56.357Z,0
2017-04-13T02:47:18.486Z,0
2017-04-13T02:48:40.001Z,0
2017-04-13T02:50:02.540Z,0
2017-04-13T02:51:25.349Z,0
2017-04-13T02:52:47.592Z,0
2017-04-13T02:54:09.509Z,0
2017-04-13T02:55:31.658Z,0
2017-04-13T02:56:53.502Z,0
2017-04-13T02:58:15.629Z,0
2017-04-13T02:59:37.550Z,0
2017-04-13T03:00:59.679Z,0
2017-04-13T03:02:22.453Z,0
2017-04-13T03:03:44.398Z,0
2017-04-13T03:05:06.229Z,0
2017-04-13T03:06:28.121Z,0
2017-04-13T03:07:50.581Z,0
2017-04-13T03:09:12.786Z,0
2017-04-13T03:10:34.919Z,0
2017-04-13T03:11:57.074Z,0
2017-04-13T03:13:19.571Z,0
2017-04-13T03:14:42.018Z,0
2017-04-13T03:16:04.523Z,0
2017-04-13T03:17:26.369Z,0
2017-04-13T03:18:49.310Z,0
2017-04-13T03:20:11.786Z,0
2017-04-13T03:21:32.973Z,0
2017-04-13T03:22:55.116Z,0
2017-04-13T03:24:17.259Z,0
2017-04-13T03:25:39.087Z,0
2017-04-13T03:27:01.558Z,0
2017-04-13T03:28:23.441Z,0
2017-04-13T03:29:45.559Z,0
2017-04-13T03:31:07.692Z,0
2017-04-13T03:32:29.521Z,0
2017-04-13T03:33:51.989Z,0
2017-04-13T03:35:13.917Z,0
2017-04-13T03:36:36.419Z,0
2017-04-13T03:37:58.278Z,0
2017-04-13T03:39:20.094Z,0
2017-04-13T03:40:41.863Z,0
2017-04-13T03:42:03.688Z,0
2017-04-13T03:43:25.180Z,0
2017-04-13T03:44:47.018Z,0
2017-04-13T03:46:09.250Z,0
2017-04-13T03:47:30.755Z,0
2017-04-13T03:48:53.254Z,0
2017-04-13T03:50:15.164Z,0
2017-04-13T03:51:37.231Z,0
2017-04-13T03:52:59.363Z,0
2017-04-13T03:54:21.549Z,0
2017-04-13T03:55:44.028Z,0
2017-04-13T03:57:06.600Z,0
2017-04-13T03:58:28.519Z,0
2017-04-13T03:59:50.360Z,0
2017-04-13T04:01:11.875Z,0
2017-04-13T04:02:34.338Z,0
2017-04-13T04:03:56.488Z,4
2017-04-13T04:05:18.014Z,4
2017-04-13T04:06:39.848Z,4
2017-04-13T04:08:01.921Z,4
2017-04-13T04:09:23.424Z,0
2017-04-13T04:10:44.938Z,8
2017-04-13T04:12:06.792Z,12
2017-04-13T04:13:29.547Z,20
2017-04-13T04:14:51.698Z,16
2017-04-13T04:16:13.848Z,16
2017-04-13T04:17:35.349Z,20
2017-04-13T04:18:57.853Z,28
2017-04-13T04:20:20.009Z,32
2017-04-13T04:21:41.766Z,28
2017-04-13T04:23:03.590Z,28
2017-04-13T04:24:25.409Z,40
2017-04-13T04:25:47.583Z,56
2017-04-13T04:27:09.086Z,64
2017-04-13T04:28:31.561Z,76
2017-04-13T04:29:54.418Z,100
2017-04-13T04:31:16.691Z,116
2017-04-13T04:32:38.928Z,152
2017-04-13T04:34:01.268Z,208
2017-04-13T04:35:23.140Z,256
2017-04-13T04:36:44.332Z,328
2017-04-13T04:38:06.158Z,392
2017-04-13T04:39:28.301Z,420
2017-04-13T04:40:50.707Z,448
2017-04-13T04:42:12.332Z,492
2017-04-13T04:43:33.212Z,560
2017-04-13T04:44:54.717Z,664
2017-04-13T04:46:16.778Z,764
2017-04-13T04:47:38.611Z,836
2017-04-13T04:49:32.398Z,928
2017-04-13T04:50:53.940Z,1020
2017-04-13T04:52:16.839Z,1148
2017-04-13T04:53:38.341Z,1280
2017-04-13T04:55:00.478Z,1452
2017-04-13T04:56:22.287Z,1572
2017-04-13T04:57:43.725Z,1680
2017-04-13T04:59:05.809Z,1840
2017-04-13T05:00:27.694Z,2068
2017-04-13T05:01:50.190Z,2272
2017-04-13T05:03:12.908Z,2436
2017-04-13T05:04:35.160Z,2564
2017-04-13T05:05:56.986Z,2640
2017-04-13T05:07:18.572Z,2636
2017-04-13T05:08:41.022Z,2668
2017-04-13T05:10:03.154Z,2740
2017-04-13T05:11:25.301Z,3172
2017-04-13T05:12:47.432Z,3520
2017-04-13T05:14:09.522Z,3680
2017-04-13T05:15:31.754Z,3944
2017-04-13T05:16:54.283Z,3744
2017-04-13T05:18:16.102Z,3756
2017-04-13T05:19:38.219Z,3784
2017-04-13T05:21:00.379Z,3844
2017-04-13T05:22:22.530Z,3972
2017-04-13T05:23:44.663Z,4124
2017-04-13T05:25:06.804Z,4280
2017-04-13T05:26:28.319Z,4396
2017-04-13T05:27:50.443Z,4556
2017-04-13T05:29:12.286Z,4820
2017-04-13T05:30:35.131Z,5004
2017-04-13T05:31:57.277Z,5488
2017-04-13T05:33:19.422Z,5544
2017-04-13T05:34:41.770Z,6848
2017-04-13T05:36:03.605Z,6892
2017-04-13T05:37:26.072Z,7104
2017-04-13T05:38:47.742Z,8056
2017-04-13T05:40:09.569Z,16736
2017-04-13T05:41:32.061Z,19744
2017-04-13T05:42:53.617Z,19648
2017-04-13T05:44:15.541Z,19392
2017-04-13T05:45:37.112Z,20000
2017-04-13T05:46:59.927Z,20864
2017-04-13T05:48:22.079Z,23904
2017-04-13T05:49:44.248Z,17280
2017-04-13T05:51:06.100Z,22080
2017-04-13T05:52:28.550Z,22400
2017-04-13T05:53:50.375Z,23520
2017-04-13T05:55:12.193Z,23360
2017-04-13T05:56:34.679Z,25056
2017-04-13T05:57:57.119Z,27200
2017-04-13T05:59:18.638Z,27648
2017-04-13T06:00:40.517Z,11840
2017-04-13T06:02:02.371Z,22496
2017-04-13T06:03:25.187Z,10860
2017-04-13T06:04:46.759Z,9048
2017-04-13T06:06:08.608Z,9124
2017-04-13T06:07:30.348Z,10768
2017-04-13T06:08:52.491Z,30336
2017-04-13T06:10:14.355Z,13236
2017-04-13T06:11:36.813Z,25888
2017-04-13T06:12:59.173Z,10252
2017-04-13T06:14:20.987Z,14180
2017-04-13T06:15:42.848Z,12156
2017-04-13T06:17:04.992Z,23520
2017-04-13T06:18:26.828Z,30656
2017-04-13T06:19:48.608Z,13128
2017-04-13T06:21:10.138Z,12244
2017-04-13T06:22:31.987Z,14764
2017-04-13T06:23:54.479Z,25696
2017-04-13T06:25:16.379Z,35936
2017-04-13T06:26:37.893Z,32352
2017-04-13T06:27:59.783Z,37120
2017-04-13T06:29:21.628Z,18336
2017-04-13T06:30:43.437Z,10320
2017-04-13T06:32:04.971Z,13440
2017-04-13T06:33:27.576Z,25696
2017-04-13T06:34:49.415Z,31904
2017-04-13T06:36:11.569Z,25600
2017-04-13T06:37:33.495Z,41984
2017-04-13T06:38:55.445Z,40768
2017-04-13T06:40:17.267Z,34336
2017-04-13T06:41:40.189Z,40608
2017-04-13T06:43:02.369Z,40288
2017-04-13T06:44:24.516Z,41568
2017-04-13T06:45:46.381Z,40864
2017-04-13T06:47:08.568Z,26976
2017-04-13T06:48:30.766Z,40672
2017-04-13T06:49:52.289Z,12100
2017-04-13T06:51:14.638Z,33920
2017-04-13T06:52:36.824Z,41952
2017-04-13T06:53:58.661Z,23456
2017-04-13T06:55:20.869Z,32096
2017-04-13T06:56:42.387Z,24288
2017-04-13T06:58:05.138Z,20064
2017-04-13T06:59:26.661Z,18688
2017-04-13T07:00:48.560Z,20000
2017-04-13T07:02:10.217Z,19264
2017-04-13T07:03:32.418Z,21152
2017-04-13T07:04:54.598Z,23680
2017-04-13T07:06:16.116Z,9000
2017-04-13T07:07:37.156Z,11048
2017-04-13T07:08:59.449Z,21312
2017-04-13T07:10:21.931Z,22944
2017-04-13T07:11:43.837Z,16096
2017-04-13T07:13:06.005Z,25472
2017-04-13T07:14:28.719Z,13420
2017-04-13T07:15:50.711Z,9856
2017-04-13T07:17:12.536Z,14020
2017-04-13T07:18:34.410Z,12328
2017-04-13T07:19:56.810Z,13780
2017-04-13T07:21:18.990Z,17984
2017-04-13T07:22:41.172Z,21504
2017-04-13T07:24:03.007Z,17600
2017-04-13T07:25:24.828Z,21376
2017-04-13T07:26:47.407Z,18720
2017-04-13T07:28:09.621Z,22400
2017-04-13T07:29:31.146Z,21024
2017-04-13T07:30:53.286Z,20352
2017-04-13T07:32:14.489Z,16544
2017-04-13T07:33:36.724Z,15224
2017-04-13T07:34:57.926Z,11716
2017-04-13T07:36:19.949Z,9300
2017-04-13T07:37:41.823Z,8948
2017-04-13T07:39:04.308Z,12612
2017-04-13T07:40:26.790Z,12316
2017-04-13T07:41:48.597Z,11048
2017-04-13T07:43:10.757Z,12064
2017-04-13T07:44:32.608Z,13368
2017-04-13T07:45:55.108Z,17632
2017-04-13T07:47:17.289Z,18624
2017-04-13T07:48:39.440Z,15524
2017-04-13T07:50:01.921Z,17088
2017-04-13T07:51:23.778Z,15376
2017-04-13T07:52:44.905Z,16672
2017-04-13T07:54:06.516Z,18528
2017-04-13T07:55:29.112Z,17152
2017-04-13T07:56:50.338Z,15456
2017-04-13T07:58:12.577Z,10316
2017-04-13T07:59:34.525Z,8316
2017-04-13T08:00:56.574Z,6300
2017-04-13T08:02:18.411Z,5880
2017-04-13T08:03:41.118Z,9772
2017-04-13T08:05:03.299Z,11704
2017-04-13T08:06:25.449Z,8036
2017-04-13T08:07:47.934Z,7008
2017-04-13T08:09:09.695Z,5900
2017-04-13T08:10:32.375Z,4616
2017-04-13T08:11:54.508Z,4764
2017-04-13T08:13:16.048Z,5348
2017-04-13T08:14:38.895Z,6128
2017-04-13T08:16:00.617Z,6512
2017-04-13T08:17:22.772Z,6836
2017-04-13T08:18:45.257Z,7720
2017-04-13T08:20:07.727Z,10288
2017-04-13T08:21:29.565Z,12652
2017-04-13T08:22:51.523Z,15036
2017-04-13T08:24:13.661Z,15084
2017-04-13T08:25:35.855Z,16704
2017-04-13T08:26:57.670Z,18816
2017-04-13T08:28:20.266Z,16428
2017-04-13T08:29:42.454Z,15796
2017-04-13T08:31:05.068Z,14784
2017-04-13T08:32:27.036Z,16252
2017-04-13T08:33:48.874Z,13480
2017-04-13T08:35:10.870Z,10552
2017-04-13T08:36:33.043Z,9504
2017-04-13T08:37:54.624Z,9076
2017-04-13T08:39:16.934Z,14948
2017-04-13T08:40:38.479Z,11656
2017-04-13T08:42:01.367Z,11312
2017-04-13T08:43:23.569Z,7868
2017-04-13T08:44:45.747Z,10240
2017-04-13T08:46:07.584Z,10384
2017-04-13T08:47:29.986Z,9424
2017-04-13T08:48:52.396Z,9892
2017-04-13T08:50:14.914Z,10188
2017-04-13T08:51:36.436Z,10052
2017-04-13T08:52:58.616Z,10264
2017-04-13T08:54:20.239Z,11040
2017-04-13T08:55:42.156Z,12556
2017-04-13T08:57:04.691Z,12568
2017-04-13T08:58:27.428Z,11452
2017-04-13T08:59:49.272Z,11488
2017-04-13T09:01:11.489Z,13904
2017-04-13T09:02:33.690Z,17568
2017-04-13T09:03:56.505Z,20064
2017-04-13T09:05:18.366Z,19232
2017-04-13T09:06:40.226Z,17120
2017-04-13T09:08:01.797Z,18752
2017-04-13T09:09:24.025Z,18016
2017-04-13T09:10:46.188Z,17952
2017-04-13T09:12:08.356Z,17152
2017-04-13T09:13:30.513Z,14160
2017-04-13T09:14:52.167Z,13312
2017-04-13T09:16:14.046Z,16228
2017-04-13T09:17:35.745Z,17056
2017-04-13T09:18:57.272Z,15808
2017-04-13T09:20:19.882Z,17056
2017-04-13T09:21:41.424Z,17344
2017-04-13T09:23:03.579Z,14204
2017-04-13T09:24:25.424Z,12456
2017-04-13T09:25:47.567Z,10920
2017-04-13T09:27:09.381Z,9740
2017-04-13T09:28:31.216Z,8004
2017-04-13T09:29:52.736Z,7028
2017-04-13T09:31:15.346Z,6804
2017-04-13T09:32:37.175Z,6936
2017-04-13T09:33:59.000Z,7072
2017-04-13T09:35:20.836Z,6092
2017-04-13T09:36:42.629Z,7152
2017-04-13T09:38:05.114Z,7660
2017-04-13T09:39:27.027Z,8260
2017-04-13T09:40:49.296Z,10328
2017-04-13T09:42:12.110Z,11020
2017-04-13T09:43:34.286Z,15748
2017-04-13T09:44:56.153Z,19520
2017-04-13T09:46:18.300Z,19648
2017-04-13T09:47:40.664Z,21920
2017-04-13T09:49:02.598Z,21472
2017-04-13T09:50:25.084Z,18880
2017-04-13T09:51:47.620Z,15936
2017-04-13T09:53:10.190Z,10784
2017-04-13T09:54:32.186Z,8808
2017-04-13T09:55:54.495Z,10312
2017-04-13T09:57:16.026Z,12116
2017-04-13T09:58:38.847Z,10904
2017-04-13T10:00:00.986Z,8316
2017-04-13T10:01:22.496Z,7564
2017-04-13T10:02:44.656Z,6188
2017-04-13T10:04:07.120Z,5860
2017-04-13T10:05:29.601Z,6596
2017-04-13T10:06:51.117Z,6048
2017-04-13T10:08:13.266Z,6772
2017-04-13T10:09:35.796Z,6276
2017-04-13T10:10:57.313Z,7504
2017-04-13T10:12:19.779Z,7976
2017-04-13T10:13:41.960Z,8460
2017-04-13T10:15:03.847Z,7780
2017-04-13T10:16:26.085Z,8872
2017-04-13T10:17:47.919Z,10876
2017-04-13T10:19:10.447Z,15116
2017-04-13T10:20:32.903Z,18592
2017-04-13T10:21:54.777Z,18112
2017-04-13T10:23:16.609Z,17920
2017-04-13T10:24:39.152Z,20448
2017-04-13T10:26:01.379Z,21504
2017-04-13T10:27:23.535Z,20128
2017-04-13T10:28:45.378Z,18592
2017-04-13T10:30:07.835Z,18112
2017-04-13T10:31:30.567Z,13848
2017-04-13T10:32:52.750Z,12692
2017-04-13T10:34:14.587Z,15904
2017-04-13T10:35:36.811Z,19584
2017-04-13T10:36:58.583Z,19840
2017-04-13T10:38:21.046Z,20992
2017-04-13T10:39:42.596Z,18528
2017-04-13T10:41:04.772Z,16128
2017-04-13T10:42:27.254Z,14268
2017-04-13T10:43:48.777Z,12344
2017-04-13T10:45:10.607Z,12108
2017-04-13T10:46:32.421Z,12352
2017-04-13T10:47:55.386Z,10384
2017-04-13T10:49:17.356Z,8004
2017-04-13T10:50:39.227Z,8268
2017-04-13T10:52:01.386Z,9536
2017-04-13T10:53:23.567Z,9860
2017-04-13T10:54:45.403Z,8668
2017-04-13T10:56:07.105Z,8760
2017-04-13T10:57:29.591Z,11084
2017-04-13T10:58:51.707Z,15888
2017-04-13T11:00:13.865Z,20352
2017-04-13T11:01:36.068Z,20256
2017-04-13T11:02:57.617Z,16416
2017-04-13T11:04:20.387Z,12660
2017-04-13T11:05:41.916Z,9112
2017-04-13T11:07:04.165Z,8072
2017-04-13T11:08:26.059Z,9236
2017-04-13T11:09:48.458Z,11508
2017-04-13T11:11:11.057Z,14716
2017-04-13T11:12:32.592Z,17696
2017-04-13T11:13:53.807Z,19808
2017-04-13T11:15:16.237Z,19968
2017-04-13T11:16:38.089Z,18816
2017-04-13T11:18:00.567Z,18944
2017-04-13T11:19:22.755Z,17440
2017-04-13T11:20:45.054Z,17248
2017-04-13T11:22:07.238Z,14636
2017-04-13T11:23:28.761Z,12736
2017-04-13T11:24:51.313Z,13644
2017-04-13T11:26:13.825Z,16256
2017-04-13T11:27:36.310Z,18400
2017-04-13T11:28:58.146Z,19904
2017-04-13T11:30:20.302Z,20736
2017-04-13T11:31:43.047Z,21248
2017-04-13T11:33:04.886Z,21600
2017-04-13T11:34:27.043Z,21600
2017-04-13T11:35:49.192Z,21216
2017-04-13T11:37:12.099Z,20352
2017-04-13T11:38:33.939Z,19456
2017-04-13T11:39:56.435Z,19424
2017-04-13T11:41:18.677Z,18784
2017-04-13T11:42:40.921Z,17568
2017-04-13T11:44:03.656Z,16736
2017-04-13T11:45:25.512Z,14780
2017-04-13T11:46:47.685Z,14720
2017-04-13T11:48:10.114Z,17088
2017-04-13T11:49:32.615Z,19808
2017-04-13T11:50:54.197Z,22176
2017-04-13T11:52:16.048Z,22336
2017-04-13T11:53:37.856Z,20864
2017-04-13T11:55:00.447Z,19296
2017-04-13T11:56:22.997Z,17984
2017-04-13T11:57:45.499Z,18016
2017-04-13T11:59:08.052Z,18240
2017-04-13T12:00:30.507Z,18048
2017-04-13T12:01:52.389Z,16112
2017-04-13T12:03:14.865Z,14144
2017-04-13T12:04:37.080Z,12960
2017-04-13T12:05:59.262Z,13252
2017-04-13T12:07:21.729Z,11444
2017-04-13T12:08:44.196Z,7740
2017-04-13T12:10:06.402Z,6168
2017-04-13T12:11:28.882Z,6076
2017-04-13T12:12:51.067Z,6532
2017-04-13T12:14:13.547Z,6332
2017-04-13T12:15:36.086Z,8132
2017-04-13T12:16:58.588Z,10736
2017-04-13T12:18:21.111Z,15360
2017-04-13T12:19:42.934Z,17824
2017-04-13T12:21:05.090Z,18208
2017-04-13T12:22:27.246Z,17984
2017-04-13T12:23:49.418Z,16832
2017-04-13T12:25:11.353Z,14872
2017-04-13T12:26:33.267Z,12536
2017-04-13T12:27:55.112Z,8788
2017-04-13T12:29:17.408Z,7920
2017-04-13T12:30:39.008Z,8968
2017-04-13T12:32:01.116Z,9832
2017-04-13T12:33:23.267Z,10652
2017-04-13T12:34:45.137Z,12408
2017-04-13T12:36:07.623Z,13692
2017-04-13T12:37:30.037Z,14072
2017-04-13T12:38:52.517Z,14700
2017-04-13T12:40:14.726Z,16128
2017-04-13T12:41:36.965Z,16672
2017-04-13T12:42:59.438Z,16256
2017-04-13T12:44:21.568Z,17440
2017-04-13T12:45:43.119Z,18208
2017-04-13T12:47:05.588Z,16672
2017-04-13T12:48:28.361Z,14748
2017-04-13T12:49:50.240Z,13160
2017-04-13T12:51:12.415Z,13740
2017-04-13T12:52:34.678Z,13644
2017-04-13T12:53:56.871Z,12828
2017-04-13T12:55:19.035Z,13412
2017-04-13T12:56:40.961Z,13348
2017-04-13T12:58:03.441Z,10564
2017-04-13T12:59:26.262Z,8584
2017-04-13T13:00:47.781Z,8664
2017-04-13T13:02:09.945Z,9612
2017-04-13T13:03:31.818Z,10580
2017-04-13T13:04:53.918Z,12368
2017-04-13T13:06:16.489Z,15472
2017-04-13T13:07:38.324Z,17760
2017-04-13T13:09:00.797Z,16452
2017-04-13T13:10:22.943Z,15012
2017-04-13T13:11:44.776Z,14452
2017-04-13T13:13:06.608Z,16640
2017-04-13T13:14:29.074Z,17440
2017-04-13T13:15:51.047Z,15284
2017-04-13T13:17:13.220Z,13444
2017-04-13T13:18:35.488Z,14336
2017-04-13T13:19:57.319Z,13516
2017-04-13T13:21:19.834Z,9936
2017-04-13T13:22:42.305Z,8608
2017-04-13T13:24:04.127Z,8604
2017-04-13T13:25:26.269Z,8884
2017-04-13T13:26:49.002Z,10672
2017-04-13T13:28:10.867Z,12668
2017-04-13T13:29:32.396Z,12420
2017-04-13T13:30:54.227Z,11736
2017-04-13T13:32:16.357Z,11140
2017-04-13T13:33:38.941Z,9988
2017-04-13T13:35:01.417Z,9536
2017-04-13T13:36:23.247Z,10136
2017-04-13T13:37:45.717Z,9904
2017-04-13T13:39:07.695Z,8876
2017-04-13T13:40:29.848Z,8500
2017-04-13T13:41:52.007Z,7548
2017-04-13T13:43:14.551Z,6380
2017-04-13T13:44:36.776Z,6960
2017-04-13T13:45:58.414Z,8720
2017-04-13T13:47:20.248Z,9980
2017-04-13T13:48:42.747Z,10716
2017-04-13T13:50:04.905Z,12244
2017-04-13T13:51:27.168Z,13684
2017-04-13T13:52:49.037Z,12112
2017-04-13T13:54:11.536Z,10936
2017-04-13T13:55:33.769Z,9668
2017-04-13T13:56:55.299Z,9372
2017-04-13T13:58:17.461Z,12028
2017-04-13T13:59:39.854Z,12404
2017-04-13T14:01:02.005Z,13280
2017-04-13T14:02:24.276Z,11448
2017-04-13T14:03:46.731Z,9500
2017-04-13T14:05:09.128Z,8420
2017-04-13T14:06:31.027Z,8064
2017-04-13T14:07:53.591Z,7896
2017-04-13T14:09:15.551Z,7856
2017-04-13T14:10:37.951Z,8312
2017-04-13T14:12:00.136Z,8632
2017-04-13T14:13:21.969Z,9668
2017-04-13T14:14:44.127Z,11068
2017-04-13T14:16:06.597Z,11432
2017-04-13T14:17:28.435Z,11976
2017-04-13T14:18:50.903Z,12656
2017-04-13T14:20:12.745Z,12880
2017-04-13T14:21:34.877Z,13316
2017-04-13T14:22:57.050Z,14424
2017-04-13T14:24:19.568Z,14108
2017-04-13T14:25:41.546Z,13160
2017-04-13T14:27:04.007Z,13876
2017-04-13T14:28:25.217Z,14328
2017-04-13T14:29:47.060Z,12804
2017-04-13T14:31:08.616Z,12248
2017-04-13T14:32:31.131Z,12316
2017-04-13T14:33:52.986Z,12980
2017-04-13T14:35:14.833Z,13224
2017-04-13T14:36:36.998Z,12624
2017-04-13T14:37:59.458Z,11812
2017-04-13T14:39:21.313Z,10888
2017-04-13T14:40:43.476Z,11268
2017-04-13T14:42:05.327Z,12096
2017-04-13T14:43:27.854Z,11880
2017-04-13T14:44:49.399Z,11500
2017-04-13T14:46:11.883Z,11816
2017-04-13T14:47:34.377Z,11812
2017-04-13T14:48:56.578Z,11852
2017-04-13T14:50:19.252Z,12600
2017-04-13T14:51:41.704Z,12896
2017-04-13T14:53:03.546Z,12316
2017-04-13T14:54:25.457Z,11780
2017-04-13T14:55:47.438Z,11336
2017-04-13T14:57:09.412Z,10964
2017-04-13T14:58:31.263Z,10064
2017-04-13T14:59:53.354Z,10580
2017-04-13T15:01:15.565Z,11040
2017-04-13T15:02:37.418Z,10148
2017-04-13T15:03:59.677Z,8280
2017-04-13T15:05:21.463Z,7248
2017-04-13T15:06:43.941Z,7984
2017-04-13T15:08:06.129Z,9772
2017-04-13T15:09:28.585Z,9512
2017-04-13T15:10:51.008Z,7432
2017-04-13T15:12:13.577Z,4772
2017-04-13T15:13:36.061Z,3564
2017-04-13T15:14:58.579Z,3524
2017-04-13T15:16:21.297Z,4096
2017-04-13T15:17:43.458Z,5648
2017-04-13T15:19:05.944Z,7156
2017-04-13T15:20:27.819Z,9040
2017-04-13T15:21:50.285Z,10792
2017-04-13T15:23:12.764Z,11200
2017-04-13T15:24:35.327Z,10168
2017-04-13T15:25:57.486Z,9852
2017-04-13T15:27:19.287Z,9856
2017-04-13T15:28:40.498Z,9432
2017-04-13T15:30:03.086Z,9496
2017-04-13T15:31:25.368Z,10276
2017-04-13T15:32:48.141Z,11252
2017-04-13T15:34:10.607Z,11900
2017-04-13T15:35:32.157Z,11644
2017-04-13T15:36:54.028Z,10924
2017-04-13T15:38:15.914Z,10536
2017-04-13T15:39:37.759Z,10256
2017-04-13T15:40:59.598Z,10120
2017-04-13T15:42:22.089Z,9764
2017-04-13T15:43:44.256Z,8952
2017-04-13T15:45:06.429Z,6820
2017-04-13T15:46:28.257Z,4800
2017-04-13T15:47:50.422Z,5036
2017-04-13T15:49:12.947Z,6488
2017-04-13T15:50:35.747Z,8016
2017-04-13T15:51:57.904Z,9180
2017-04-13T15:53:19.767Z,9768
2017-04-13T15:54:42.508Z,9152
2017-04-13T15:56:04.077Z,8600
2017-04-13T15:57:26.561Z,7752
2017-04-13T15:58:48.405Z,7196
2017-04-13T16:00:10.927Z,6312
2017-04-13T16:01:33.079Z,5376
2017-04-13T16:02:54.917Z,5208
2017-04-13T16:04:16.790Z,5628
2017-04-13T16:05:38.887Z,6192
2017-04-13T16:07:01.359Z,6488
2017-04-13T16:08:23.605Z,6248
2017-04-13T16:09:46.079Z,5752
2017-04-13T16:11:08.816Z,5472
2017-04-13T16:12:31.322Z,5176
2017-04-13T16:13:53.458Z,5116
2017-04-13T16:15:15.663Z,5012
2017-04-13T16:16:38.410Z,5600
2017-04-13T16:18:00.567Z,6128
2017-04-13T16:19:22.953Z,6168
2017-04-13T16:20:45.171Z,5728
2017-04-13T16:22:07.628Z,5456
2017-04-13T16:23:29.780Z,5220
2017-04-13T16:24:52.246Z,5156
2017-04-13T16:26:14.726Z,5196
2017-04-13T16:27:37.437Z,5192
2017-04-13T16:28:59.597Z,5284
2017-04-13T16:30:21.759Z,5716
2017-04-13T16:31:43.938Z,6008
2017-04-13T16:33:06.102Z,6376
2017-04-13T16:34:28.568Z,6168
2017-04-13T16:35:51.067Z,5812
2017-04-13T16:37:12.585Z,5620
2017-04-13T16:38:35.003Z,5628
2017-04-13T16:39:57.538Z,5716
2017-04-13T16:41:20.029Z,6104
2017-04-13T16:42:42.498Z,6380
2017-04-13T16:44:05.370Z,6416
2017-04-13T16:45:27.530Z,5884
2017-04-13T16:46:50.021Z,5684
2017-04-13T16:48:12.228Z,5652
2017-04-13T16:49:34.950Z,5484
2017-04-13T16:50:57.109Z,5364
2017-04-13T16:52:19.397Z,5124
2017-04-13T16:53:41.558Z,4968
2017-04-13T16:55:03.679Z,4752
2017-04-13T16:56:25.837Z,4680
2017-04-13T16:57:48.032Z,5180
2017-04-13T16:59:10.199Z,5716
2017-04-13T17:00:32.330Z,5132
2017-04-13T17:01:54.190Z,4228
2017-04-13T17:03:16.170Z,3712
2017-04-13T17:04:38.321Z,3476
2017-04-13T17:06:00.092Z,3232
2017-04-13T17:07:22.657Z,3368
2017-04-13T17:08:43.868Z,3336
2017-04-13T17:10:06.036Z,3172
2017-04-13T17:11:28.569Z,2752
2017-04-13T17:12:51.068Z,2704
2017-04-13T17:14:13.228Z,2536
2017-04-13T17:15:35.408Z,2500
2017-04-13T17:16:58.218Z,2580
2017-04-13T17:18:20.495Z,2708
2017-04-13T17:19:42.788Z,2996
2017-04-13T17:21:05.347Z,3096
2017-04-13T17:22:27.618Z,3672
2017-04-13T17:23:49.478Z,4388
2017-04-13T17:25:11.631Z,4640
2017-04-13T17:26:33.174Z,4592
2017-04-13T17:27:55.689Z,4396
2017-04-13T17:29:18.154Z,4316
2017-04-13T17:30:40.347Z,4136
2017-04-13T17:32:02.204Z,3840
2017-04-13T17:33:23.989Z,3508
2017-04-13T17:34:46.520Z,3160
2017-04-13T17:36:08.039Z,2900
2017-04-13T17:37:30.568Z,2776
2017-04-13T17:38:53.299Z,2716
2017-04-13T17:40:15.497Z,2624
2017-04-13T17:41:37.979Z,2556
2017-04-13T17:43:00.130Z,2492
2017-04-13T17:44:22.245Z,2468
2017-04-13T17:45:44.778Z,2436
2017-04-13T17:47:07.066Z,2344
2017-04-13T17:48:29.557Z,2196
2017-04-13T17:49:52.079Z,2028
2017-04-13T17:51:13.907Z,1868
2017-04-13T17:52:36.518Z,1728
2017-04-13T17:53:59.029Z,1596
2017-04-13T17:55:21.437Z,1468
2017-04-13T17:56:43.599Z,1312
2017-04-13T17:58:06.205Z,1188
2017-04-13T17:59:28.376Z,1108
2017-04-13T18:00:50.516Z,972
2017-04-13T18:02:12.737Z,876
2017-04-13T18:03:34.898Z,772
2017-04-13T18:04:57.411Z,692
2017-04-13T18:06:19.823Z,588
2017-04-13T18:07:41.978Z,508
2017-04-13T18:09:03.823Z,492
2017-04-13T18:10:25.034Z,472
2017-04-13T18:11:47.428Z,432
2017-04-13T18:13:09.577Z,396
2017-04-13T18:14:32.149Z,372
2017-04-13T18:15:53.988Z,328
2017-04-13T18:17:16.398Z,288
2017-04-13T18:18:38.608Z,256
2017-04-13T18:20:00.837Z,228
2017-04-13T18:21:22.696Z,200
2017-04-13T18:22:45.624Z,184
2017-04-13T18:24:08.138Z,160
2017-04-13T18:25:30.303Z,136
2017-04-13T18:26:52.484Z,120
2017-04-13T18:28:14.919Z,100